sensor_id;sensor_type;location;lat;lon;timestamp;P1;P2;P0
79689;PMS5003;69156;55.932;-3.238;2023-05-10T00:00:12;3;3;
79689;PMS5003;69156;55.932;-3.238;2023-05-10T00:02:37;4;3;
79689;PMS5003;69156;55.932;-3.238;2023-05-10T00:05:02;4;3;
79689;PMS5003;69156;55.932;-3.238;2023-05-10T00:07:27;4;4;
79689;PMS5003;69156;55.932;-3.238;2023-05-10T00:09:52;3;2;
79689;PMS5003;69156;55.932;-3.238;2023-05-10T00:12:18;4;4;
79689;PMS5003;69156;55.932;-3.238;2023-05-10T00:14:44;5;4;
79689;PMS5003;69156;55.932;-3.238;2023-05-10T00:17:10;3;3;
79689;PMS5003;69156;55.932;-3.238;2023-05-10T00:19:35;3;3;
79689;PMS5003;69156;55.932;-3.238;2023-05-10T00:22:00;6;5;
79689;PMS5003;69156;55.932;-3.238;2023-05-10T00:24:26;6;6;
79689;PMS5003;69156;55.932;-3.238;2023-05-10T00:26:51;4;3;
79689;PMS5003;69156;55.932;-3.238;2023-05-10T00:29:17;4;4;
79689;PMS5003;69156;55.932;-3.238;2023-05-10T00:31:42;4;4;
79689;PMS5003;69156;55.932;-3.238;2023-05-10T00:34:07;5;5;
79689;PMS5003;69156;55.932;-3.238;2023-05-10T00:36:33;3;3;
79689;PMS5003;69156;55.932;-3.238;2023-05-10T00:38:59;4;4;
79689;PMS5003;69156;55.932;-3.238;2023-05-10T00:41:24;3;3;
79689;PMS5003;69156;55.932;-3.238;2023-05-10T00:43:49;4;4;
79689;PMS5003;69156;55.932;-3.238;2023-05-10T00:46:15;5;5;
79689;PMS5003;69156;55.932;-3.238;2023-05-10T00:48:41;4;3;
79689;PMS5003;69156;55.932;-3.238;2023-05-10T00:51:06;4;3;
79689;PMS5003;69156;55.932;-3.238;2023-05-10T00:53:32;3;3;
79689;PMS5003;69156;55.932;-3.238;2023-05-10T00:55:58;4;3;
79689;PMS5003;69156;55.932;-3.238;2023-05-10T00:58:23;4;4;
79689;PMS5003;69156;55.932;-3.238;2023-05-10T01:00:48;5;5;
79689;PMS5003;69156;55.932;-3.238;2023-05-10T01:03:14;4;4;
79689;PMS5003;69156;55.932;-3.238;2023-05-10T01:05:39;4;4;
79689;PMS5003;69156;55.932;-3.238;2023-05-10T01:08:06;4;4;
79689;PMS5003;69156;55.932;-3.238;2023-05-10T01:10:30;4;3;
79689;PMS5003;69156;55.932;-3.238;2023-05-10T01:12:56;3;3;
79689;PMS5003;69156;55.932;-3.238;2023-05-10T01:15:23;6;6;
79689;PMS5003;69156;55.932;-3.238;2023-05-10T01:17:48;5;5;
79689;PMS5003;69156;55.932;-3.238;2023-05-10T01:20:13;4;4;
79689;PMS5003;69156;55.932;-3.238;2023-05-10T01:22:42;5;5;
79689;PMS5003;69156;55.932;-3.238;2023-05-10T01:25:16;6;5;
79689;PMS5003;69156;55.932;-3.238;2023-05-10T01:27:37;4;4;
79689;PMS5003;69156;55.932;-3.238;2023-05-10T01:30:06;3;3;
79689;PMS5003;69156;55.932;-3.238;2023-05-10T01:32:21;3;3;
79689;PMS5003;69156;55.932;-3.238;2023-05-10T01:34:47;3;3;
79689;PMS5003;69156;55.932;-3.238;2023-05-10T01:37:13;4;4;
79689;PMS5003;69156;55.932;-3.238;2023-05-10T01:39:39;5;5;
79689;PMS5003;69156;55.932;-3.238;2023-05-10T01:42:03;5;4;
79689;PMS5003;69156;55.932;-3.238;2023-05-10T01:44:29;4;4;
79689;PMS5003;69156;55.932;-3.238;2023-05-10T01:46:54;4;4;
79689;PMS5003;69156;55.932;-3.238;2023-05-10T01:49:20;5;5;
79689;PMS5003;69156;55.932;-3.238;2023-05-10T01:51:45;7;7;
79689;PMS5003;69156;55.932;-3.238;2023-05-10T01:54:10;6;6;
79689;PMS5003;69156;55.932;-3.238;2023-05-10T01:56:35;5;5;
79689;PMS5003;69156;55.932;-3.238;2023-05-10T01:59:02;5;5;
79689;PMS5003;69156;55.932;-3.238;2023-05-10T02:01:27;4;4;
79689;PMS5003;69156;55.932;-3.238;2023-05-10T02:03:52;4;4;
79689;PMS5003;69156;55.932;-3.238;2023-05-10T02:06:18;3;3;
79689;PMS5003;69156;55.932;-3.238;2023-05-10T02:08:43;3;3;
79689;PMS5003;69156;55.932;-3.238;2023-05-10T02:11:10;3;3;
79689;PMS5003;69156;55.932;-3.238;2023-05-10T02:13:35;4;4;
79689;PMS5003;69156;55.932;-3.238;2023-05-10T02:16:01;4;4;
79689;PMS5003;69156;55.932;-3.238;2023-05-10T02:18:26;3;3;
79689;PMS5003;69156;55.932;-3.238;2023-05-10T02:20:52;3;3;
79689;PMS5003;69156;55.932;-3.238;2023-05-10T02:23:18;4;4;
79689;PMS5003;69156;55.932;-3.238;2023-05-10T02:25:44;3;3;
79689;PMS5003;69156;55.932;-3.238;2023-05-10T02:28:10;5;5;
79689;PMS5003;69156;55.932;-3.238;2023-05-10T02:30:35;3;2;
79689;PMS5003;69156;55.932;-3.238;2023-05-10T02:33:00;6;6;
79689;PMS5003;69156;55.932;-3.238;2023-05-10T02:35:26;5;4;
79689;PMS5003;69156;55.932;-3.238;2023-05-10T02:37:52;4;4;
79689;PMS5003;69156;55.932;-3.238;2023-05-10T02:40:18;5;5;
79689;PMS5003;69156;55.932;-3.238;2023-05-10T02:42:43;3;3;
79689;PMS5003;69156;55.932;-3.238;2023-05-10T02:45:11;5;5;
79689;PMS5003;69156;55.932;-3.238;2023-05-10T02:47:34;4;4;
79689;PMS5003;69156;55.932;-3.238;2023-05-10T02:50:00;5;5;
79689;PMS5003;69156;55.932;-3.238;2023-05-10T02:52:27;2;2;
79689;PMS5003;69156;55.932;-3.238;2023-05-10T02:54:52;3;3;
79689;PMS5003;69156;55.932;-3.238;2023-05-10T02:57:17;5;4;
79689;PMS5003;69156;55.932;-3.238;2023-05-10T02:59:42;5;5;
79689;PMS5003;69156;55.932;-3.238;2023-05-10T03:02:07;4;4;
79689;PMS5003;69156;55.932;-3.238;2023-05-10T03:04:32;5;5;
79689;PMS5003;69156;55.932;-3.238;2023-05-10T03:06:58;3;3;
79689;PMS5003;69156;55.932;-3.238;2023-05-10T03:09:23;3;3;
79689;PMS5003;69156;55.932;-3.238;2023-05-10T03:11:52;5;5;
79689;PMS5003;69156;55.932;-3.238;2023-05-10T03:14:18;4;4;
79689;PMS5003;69156;55.932;-3.238;2023-05-10T03:16:41;2;2;
79689;PMS5003;69156;55.932;-3.238;2023-05-10T03:19:06;3;3;
79689;PMS5003;69156;55.932;-3.238;2023-05-10T03:21:29;4;4;
79689;PMS5003;69156;55.932;-3.238;2023-05-10T03:23:57;5;4;
79689;PMS5003;69156;55.932;-3.238;2023-05-10T03:26:22;3;3;
79689;PMS5003;69156;55.932;-3.238;2023-05-10T03:28:46;4;3;
79689;PMS5003;69156;55.932;-3.238;2023-05-10T03:31:12;4;4;
79689;PMS5003;69156;55.932;-3.238;2023-05-10T03:33:45;4;4;
79689;PMS5003;69156;55.932;-3.238;2023-05-10T03:36:03;4;4;
79689;PMS5003;69156;55.932;-3.238;2023-05-10T03:38:28;5;5;
79689;PMS5003;69156;55.932;-3.238;2023-05-10T03:40:54;4;4;
79689;PMS5003;69156;55.932;-3.238;2023-05-10T03:43:20;3;3;
79689;PMS5003;69156;55.932;-3.238;2023-05-10T03:45:45;2;2;
79689;PMS5003;69156;55.932;-3.238;2023-05-10T03:48:11;5;3;
79689;PMS5003;69156;55.932;-3.238;2023-05-10T03:50:36;5;5;
79689;PMS5003;69156;55.932;-3.238;2023-05-10T03:53:02;3;3;
79689;PMS5003;69156;55.932;-3.238;2023-05-10T03:55:26;5;5;
79689;PMS5003;69156;55.932;-3.238;2023-05-10T03:57:52;4;4;
79689;PMS5003;69156;55.932;-3.238;2023-05-10T04:00:17;4;3;
79689;PMS5003;69156;55.932;-3.238;2023-05-10T04:02:43;5;4;
79689;PMS5003;69156;55.932;-3.238;2023-05-10T04:05:08;3;3;
79689;PMS5003;69156;55.932;-3.238;2023-05-10T04:07:34;4;4;
79689;PMS5003;69156;55.932;-3.238;2023-05-10T04:09:59;4;4;
79689;PMS5003;69156;55.932;-3.238;2023-05-10T04:12:25;3;3;
79689;PMS5003;69156;55.932;-3.238;2023-05-10T04:14:50;3;3;
79689;PMS5003;69156;55.932;-3.238;2023-05-10T04:17:15;3;2;
79689;PMS5003;69156;55.932;-3.238;2023-05-10T04:19:41;3;3;
79689;PMS5003;69156;55.932;-3.238;2023-05-10T04:22:07;6;3;
79689;PMS5003;69156;55.932;-3.238;2023-05-10T04:24:32;3;3;
79689;PMS5003;69156;55.932;-3.238;2023-05-10T04:26:58;5;4;
79689;PMS5003;69156;55.932;-3.238;2023-05-10T04:29:24;4;4;
79689;PMS5003;69156;55.932;-3.238;2023-05-10T04:31:50;3;3;
79689;PMS5003;69156;55.932;-3.238;2023-05-10T04:34:15;2;2;
79689;PMS5003;69156;55.932;-3.238;2023-05-10T04:36:41;3;3;
79689;PMS5003;69156;55.932;-3.238;2023-05-10T04:39:07;3;3;
79689;PMS5003;69156;55.932;-3.238;2023-05-10T04:41:32;4;4;
79689;PMS5003;69156;55.932;-3.238;2023-05-10T04:43:57;4;4;
79689;PMS5003;69156;55.932;-3.238;2023-05-10T04:46:23;3;3;
79689;PMS5003;69156;55.932;-3.238;2023-05-10T04:48:49;3;3;
79689;PMS5003;69156;55.932;-3.238;2023-05-10T04:51:14;3;3;
79689;PMS5003;69156;55.932;-3.238;2023-05-10T04:53:40;4;4;
79689;PMS5003;69156;55.932;-3.238;2023-05-10T04:56:06;3;3;
79689;PMS5003;69156;55.932;-3.238;2023-05-10T04:58:31;4;3;
79689;PMS5003;69156;55.932;-3.238;2023-05-10T05:00:56;4;4;
79689;PMS5003;69156;55.932;-3.238;2023-05-10T05:03:22;4;4;
79689;PMS5003;69156;55.932;-3.238;2023-05-10T05:05:47;3;3;
79689;PMS5003;69156;55.932;-3.238;2023-05-10T05:08:13;4;4;
79689;PMS5003;69156;55.932;-3.238;2023-05-10T05:10:38;3;3;
79689;PMS5003;69156;55.932;-3.238;2023-05-10T05:13:03;4;3;
79689;PMS5003;69156;55.932;-3.238;2023-05-10T05:15:29;3;3;
79689;PMS5003;69156;55.932;-3.238;2023-05-10T05:17:55;3;3;
79689;PMS5003;69156;55.932;-3.238;2023-05-10T05:20:21;3;3;
79689;PMS5003;69156;55.932;-3.238;2023-05-10T05:22:46;3;3;
79689;PMS5003;69156;55.932;-3.238;2023-05-10T05:25:11;5;5;
79689;PMS5003;69156;55.932;-3.238;2023-05-10T05:27:37;3;3;
79689;PMS5003;69156;55.932;-3.238;2023-05-10T05:30:03;3;3;
79689;PMS5003;69156;55.932;-3.238;2023-05-10T05:32:28;4;4;
79689;PMS5003;69156;55.932;-3.238;2023-05-10T05:34:54;4;4;
79689;PMS5003;69156;55.932;-3.238;2023-05-10T05:37:20;4;4;
79689;PMS5003;69156;55.932;-3.238;2023-05-10T05:39:45;4;4;
79689;PMS5003;69156;55.932;-3.238;2023-05-10T05:42:10;5;5;
79689;PMS5003;69156;55.932;-3.238;2023-05-10T05:44:36;3;3;
79689;PMS5003;69156;55.932;-3.238;2023-05-10T05:47:02;5;5;
79689;PMS5003;69156;55.932;-3.238;2023-05-10T05:49:27;4;4;
79689;PMS5003;69156;55.932;-3.238;2023-05-10T05:51:53;5;5;
79689;PMS5003;69156;55.932;-3.238;2023-05-10T05:54:18;5;5;
79689;PMS5003;69156;55.932;-3.238;2023-05-10T05:56:43;6;6;
79689;PMS5003;69156;55.932;-3.238;2023-05-10T05:59:09;5;5;
79689;PMS5003;69156;55.932;-3.238;2023-05-10T06:01:35;6;4;
79689;PMS5003;69156;55.932;-3.238;2023-05-10T06:04:01;5;5;
79689;PMS5003;69156;55.932;-3.238;2023-05-10T06:06:26;5;5;
79689;PMS5003;69156;55.932;-3.238;2023-05-10T06:08:52;4;4;
79689;PMS5003;69156;55.932;-3.238;2023-05-10T06:11:17;5;5;
79689;PMS5003;69156;55.932;-3.238;2023-05-10T06:13:42;5;5;
79689;PMS5003;69156;55.932;-3.238;2023-05-10T06:16:08;4;4;
79689;PMS5003;69156;55.932;-3.238;2023-05-10T06:18:33;4;4;
79689;PMS5003;69156;55.932;-3.238;2023-05-10T06:20:58;4;3;
79689;PMS5003;69156;55.932;-3.238;2023-05-10T06:23:24;4;4;
79689;PMS5003;69156;55.932;-3.238;2023-05-10T06:25:50;5;5;
79689;PMS5003;69156;55.932;-3.238;2023-05-10T06:28:20;5;5;
79689;PMS5003;69156;55.932;-3.238;2023-05-10T06:30:45;4;4;
79689;PMS5003;69156;55.932;-3.238;2023-05-10T06:33:10;4;4;
79689;PMS5003;69156;55.932;-3.238;2023-05-10T06:35:35;3;3;
79689;PMS5003;69156;55.932;-3.238;2023-05-10T06:38:00;3;3;
79689;PMS5003;69156;55.932;-3.238;2023-05-10T06:40:26;3;3;
79689;PMS5003;69156;55.932;-3.238;2023-05-10T06:42:51;4;4;
79689;PMS5003;69156;55.932;-3.238;2023-05-10T06:45:17;3;3;
79689;PMS5003;69156;55.932;-3.238;2023-05-10T06:47:42;5;5;
79689;PMS5003;69156;55.932;-3.238;2023-05-10T06:50:08;4;4;
79689;PMS5003;69156;55.932;-3.238;2023-05-10T06:52:33;5;5;
79689;PMS5003;69156;55.932;-3.238;2023-05-10T06:54:58;5;5;
79689;PMS5003;69156;55.932;-3.238;2023-05-10T06:57:23;3;2;
79689;PMS5003;69156;55.932;-3.238;2023-05-10T06:59:49;3;3;
79689;PMS5003;69156;55.932;-3.238;2023-05-10T07:02:14;3;3;
79689;PMS5003;69156;55.932;-3.238;2023-05-10T07:04:40;5;5;
79689;PMS5003;69156;55.932;-3.238;2023-05-10T07:07:05;4;4;
79689;PMS5003;69156;55.932;-3.238;2023-05-10T07:09:30;4;4;
79689;PMS5003;69156;55.932;-3.238;2023-05-10T07:11:56;4;4;
79689;PMS5003;69156;55.932;-3.238;2023-05-10T07:14:21;5;5;
79689;PMS5003;69156;55.932;-3.238;2023-05-10T07:16:47;3;3;
79689;PMS5003;69156;55.932;-3.238;2023-05-10T07:19:12;3;3;
79689;PMS5003;69156;55.932;-3.238;2023-05-10T07:21:37;5;5;
79689;PMS5003;69156;55.932;-3.238;2023-05-10T07:24:02;7;7;
79689;PMS5003;69156;55.932;-3.238;2023-05-10T07:26:28;4;3;
79689;PMS5003;69156;55.932;-3.238;2023-05-10T07:28:54;3;3;
79689;PMS5003;69156;55.932;-3.238;2023-05-10T07:31:19;2;2;
79689;PMS5003;69156;55.932;-3.238;2023-05-10T07:33:45;2;2;
79689;PMS5003;69156;55.932;-3.238;2023-05-10T07:36:11;3;3;
79689;PMS5003;69156;55.932;-3.238;2023-05-10T07:38:36;3;3;
79689;PMS5003;69156;55.932;-3.238;2023-05-10T07:41:02;3;3;
79689;PMS5003;69156;55.932;-3.238;2023-05-10T07:43:27;3;3;
79689;PMS5003;69156;55.932;-3.238;2023-05-10T07:45:52;3;3;
79689;PMS5003;69156;55.932;-3.238;2023-05-10T07:48:18;3;3;
79689;PMS5003;69156;55.932;-3.238;2023-05-10T07:50:43;4;3;
79689;PMS5003;69156;55.932;-3.238;2023-05-10T07:53:09;2;2;
79689;PMS5003;69156;55.932;-3.238;2023-05-10T07:55:35;2;2;
79689;PMS5003;69156;55.932;-3.238;2023-05-10T07:58:00;4;4;
79689;PMS5003;69156;55.932;-3.238;2023-05-10T08:00:25;3;3;
79689;PMS5003;69156;55.932;-3.238;2023-05-10T08:02:52;4;4;
79689;PMS5003;69156;55.932;-3.238;2023-05-10T08:05:18;2;2;
79689;PMS5003;69156;55.932;-3.238;2023-05-10T08:07:44;1;1;
79689;PMS5003;69156;55.932;-3.238;2023-05-10T08:10:10;2;2;
79689;PMS5003;69156;55.932;-3.238;2023-05-10T08:12:35;3;2;
79689;PMS5003;69156;55.932;-3.238;2023-05-10T08:15:00;1;1;
79689;PMS5003;69156;55.932;-3.238;2023-05-10T08:17:26;2;2;
79689;PMS5003;69156;55.932;-3.238;2023-05-10T08:19:53;2;2;
79689;PMS5003;69156;55.932;-3.238;2023-05-10T08:22:18;1;1;
79689;PMS5003;69156;55.932;-3.238;2023-05-10T08:24:43;26;24;
79689;PMS5003;69156;55.932;-3.238;2023-05-10T08:27:09;5;5;
79689;PMS5003;69156;55.932;-3.238;2023-05-10T08:29:34;2;2;
79689;PMS5003;69156;55.932;-3.238;2023-05-10T08:32:00;2;2;
79689;PMS5003;69156;55.932;-3.238;2023-05-10T08:34:26;3;3;
79689;PMS5003;69156;55.932;-3.238;2023-05-10T08:36:52;2;2;
79689;PMS5003;69156;55.932;-3.238;2023-05-10T08:39:17;4;4;
79689;PMS5003;69156;55.932;-3.238;2023-05-10T08:41:43;6;5;
79689;PMS5003;69156;55.932;-3.238;2023-05-10T08:44:08;3;3;
79689;PMS5003;69156;55.932;-3.238;2023-05-10T08:46:34;2;2;
79689;PMS5003;69156;55.932;-3.238;2023-05-10T08:49:01;5;5;
79689;PMS5003;69156;55.932;-3.238;2023-05-10T08:51:27;3;3;
79689;PMS5003;69156;55.932;-3.238;2023-05-10T08:53:52;1;1;
79689;PMS5003;69156;55.932;-3.238;2023-05-10T08:56:17;1;1;
79689;PMS5003;69156;55.932;-3.238;2023-05-10T08:58:43;2;1;
79689;PMS5003;69156;55.932;-3.238;2023-05-10T09:01:08;2;2;
79689;PMS5003;69156;55.932;-3.238;2023-05-10T09:03:34;1;1;
79689;PMS5003;69156;55.932;-3.238;2023-05-10T09:06:00;1;1;
79689;PMS5003;69156;55.932;-3.238;2023-05-10T09:08:26;1;1;
79689;PMS5003;69156;55.932;-3.238;2023-05-10T09:10:51;2;2;
79689;PMS5003;69156;55.932;-3.238;2023-05-10T09:13:16;1;1;
79689;PMS5003;69156;55.932;-3.238;2023-05-10T09:15:43;1;1;
79689;PMS5003;69156;55.932;-3.238;2023-05-10T09:18:08;1;1;
79689;PMS5003;69156;55.932;-3.238;2023-05-10T09:20:33;0;0;
79689;PMS5003;69156;55.932;-3.238;2023-05-10T09:22:58;1;1;
79689;PMS5003;69156;55.932;-3.238;2023-05-10T09:25:24;2;2;
79689;PMS5003;69156;55.932;-3.238;2023-05-10T09:27:51;1;1;
79689;PMS5003;69156;55.932;-3.238;2023-05-10T09:30:23;1;1;
79689;PMS5003;69156;55.932;-3.238;2023-05-10T09:32:43;2;2;
79689;PMS5003;69156;55.932;-3.238;2023-05-10T09:35:08;0;0;
79689;PMS5003;69156;55.932;-3.238;2023-05-10T09:37:32;0;0;
79689;PMS5003;69156;55.932;-3.238;2023-05-10T09:39:58;1;1;
79689;PMS5003;69156;55.932;-3.238;2023-05-10T09:42:23;1;1;
79689;PMS5003;69156;55.932;-3.238;2023-05-10T09:44:48;0;0;
79689;PMS5003;69156;55.932;-3.238;2023-05-10T09:47:17;1;1;
79689;PMS5003;69156;55.932;-3.238;2023-05-10T09:49:39;0;0;
79689;PMS5003;69156;55.932;-3.238;2023-05-10T09:52:04;1;1;
79689;PMS5003;69156;55.932;-3.238;2023-05-10T09:54:29;0;0;
79689;PMS5003;69156;55.932;-3.238;2023-05-10T09:56:55;1;1;
79689;PMS5003;69156;55.932;-3.238;2023-05-10T09:59:20;1;1;
79689;PMS5003;69156;55.932;-3.238;2023-05-10T10:01:49;1;1;
79689;PMS5003;69156;55.932;-3.238;2023-05-10T10:04:11;1;1;
79689;PMS5003;69156;55.932;-3.238;2023-05-10T10:06:36;0;0;
79689;PMS5003;69156;55.932;-3.238;2023-05-10T10:09:02;1;1;
79689;PMS5003;69156;55.932;-3.238;2023-05-10T10:11:27;2;1;
79689;PMS5003;69156;55.932;-3.238;2023-05-10T10:13:54;0;0;
79689;PMS5003;69156;55.932;-3.238;2023-05-10T10:16:19;1;1;
79689;PMS5003;69156;55.932;-3.238;2023-05-10T10:18:44;0;0;
79689;PMS5003;69156;55.932;-3.238;2023-05-10T10:21:10;0;0;
79689;PMS5003;69156;55.932;-3.238;2023-05-10T10:23:35;0;0;
79689;PMS5003;69156;55.932;-3.238;2023-05-10T10:26:00;0;0;
79689;PMS5003;69156;55.932;-3.238;2023-05-10T10:28:28;0;0;
79689;PMS5003;69156;55.932;-3.238;2023-05-10T10:30:51;0;0;
79689;PMS5003;69156;55.932;-3.238;2023-05-10T10:33:23;0;0;
79689;PMS5003;69156;55.932;-3.238;2023-05-10T10:35:41;0;0;
79689;PMS5003;69156;55.932;-3.238;2023-05-10T10:38:07;0;0;
79689;PMS5003;69156;55.932;-3.238;2023-05-10T10:40:33;0;0;
79689;PMS5003;69156;55.932;-3.238;2023-05-10T10:43:20;0;0;
79689;PMS5003;69156;55.932;-3.238;2023-05-10T10:45:24;0;0;
79689;PMS5003;69156;55.932;-3.238;2023-05-10T10:47:54;0;0;
79689;PMS5003;69156;55.932;-3.238;2023-05-10T10:50:16;0;0;
79689;PMS5003;69156;55.932;-3.238;2023-05-10T10:52:41;0;0;
79689;PMS5003;69156;55.932;-3.238;2023-05-10T10:55:07;1;0;
79689;PMS5003;69156;55.932;-3.238;2023-05-10T10:57:33;0;0;
79689;PMS5003;69156;55.932;-3.238;2023-05-10T11:00:29;0;0;
79689;PMS5003;69156;55.932;-3.238;2023-05-10T11:03:28;0;0;
79689;PMS5003;69156;55.932;-3.238;2023-05-10T11:04:49;1;1;
79689;PMS5003;69156;55.932;-3.238;2023-05-10T11:07:18;0;0;
79689;PMS5003;69156;55.932;-3.238;2023-05-10T11:09:39;0;0;
79689;PMS5003;69156;55.932;-3.238;2023-05-10T11:12:07;0;0;
79689;PMS5003;69156;55.932;-3.238;2023-05-10T11:14:30;0;0;
79689;PMS5003;69156;55.932;-3.238;2023-05-10T11:16:56;0;0;
79689;PMS5003;69156;55.932;-3.238;2023-05-10T11:19:22;0;0;
79689;PMS5003;69156;55.932;-3.238;2023-05-10T11:21:47;0;0;
79689;PMS5003;69156;55.932;-3.238;2023-05-10T11:24:13;0;0;
79689;PMS5003;69156;55.932;-3.238;2023-05-10T11:26:38;0;0;
79689;PMS5003;69156;55.932;-3.238;2023-05-10T11:29:03;1;1;
79689;PMS5003;69156;55.932;-3.238;2023-05-10T11:31:29;1;1;
79689;PMS5003;69156;55.932;-3.238;2023-05-10T11:33:54;0;0;
79689;PMS5003;69156;55.932;-3.238;2023-05-10T11:36:20;0;0;
79689;PMS5003;69156;55.932;-3.238;2023-05-10T11:38:45;0;0;
79689;PMS5003;69156;55.932;-3.238;2023-05-10T11:41:10;0;0;
79689;PMS5003;69156;55.932;-3.238;2023-05-10T11:43:35;0;0;
79689;PMS5003;69156;55.932;-3.238;2023-05-10T11:46:01;0;0;
79689;PMS5003;69156;55.932;-3.238;2023-05-10T11:48:26;0;0;
79689;PMS5003;69156;55.932;-3.238;2023-05-10T11:50:52;0;0;
79689;PMS5003;69156;55.932;-3.238;2023-05-10T11:53:19;0;0;
79689;PMS5003;69156;55.932;-3.238;2023-05-10T11:55:44;0;0;
79689;PMS5003;69156;55.932;-3.238;2023-05-10T11:58:10;0;0;
79689;PMS5003;69156;55.932;-3.238;2023-05-10T12:00:36;0;0;
79689;PMS5003;69156;55.932;-3.238;2023-05-10T12:03:01;0;0;
79689;PMS5003;69156;55.932;-3.238;2023-05-10T12:05:27;0;0;
79689;PMS5003;69156;55.932;-3.238;2023-05-10T12:07:52;0;0;
79689;PMS5003;69156;55.932;-3.238;2023-05-10T12:10:24;1;0;
79689;PMS5003;69156;55.932;-3.238;2023-05-10T12:12:44;0;0;
79689;PMS5003;69156;55.932;-3.238;2023-05-10T12:15:12;0;0;
79689;PMS5003;69156;55.932;-3.238;2023-05-10T12:17:36;0;0;
79689;PMS5003;69156;55.932;-3.238;2023-05-10T12:20:12;0;0;
79689;PMS5003;69156;55.932;-3.238;2023-05-10T12:22:25;0;0;
79689;PMS5003;69156;55.932;-3.238;2023-05-10T12:24:51;0;0;
79689;PMS5003;69156;55.932;-3.238;2023-05-10T12:27:15;0;0;
79689;PMS5003;69156;55.932;-3.238;2023-05-10T12:29:42;0;0;
79689;PMS5003;69156;55.932;-3.238;2023-05-10T12:32:08;0;0;
79689;PMS5003;69156;55.932;-3.238;2023-05-10T12:34:34;0;0;
79689;PMS5003;69156;55.932;-3.238;2023-05-10T12:36:59;0;0;
79689;PMS5003;69156;55.932;-3.238;2023-05-10T12:39:24;0;0;
79689;PMS5003;69156;55.932;-3.238;2023-05-10T12:41:51;0;0;
79689;PMS5003;69156;55.932;-3.238;2023-05-10T12:44:16;0;0;
79689;PMS5003;69156;55.932;-3.238;2023-05-10T12:46:41;0;0;
79689;PMS5003;69156;55.932;-3.238;2023-05-10T12:49:07;0;0;
79689;PMS5003;69156;55.932;-3.238;2023-05-10T12:51:32;0;0;
79689;PMS5003;69156;55.932;-3.238;2023-05-10T12:53:58;0;0;
79689;PMS5003;69156;55.932;-3.238;2023-05-10T12:56:23;0;0;
79689;PMS5003;69156;55.932;-3.238;2023-05-10T12:58:48;1;1;
79689;PMS5003;69156;55.932;-3.238;2023-05-10T13:01:13;1;1;
79689;PMS5003;69156;55.932;-3.238;2023-05-10T13:03:39;0;0;
79689;PMS5003;69156;55.932;-3.238;2023-05-10T13:06:04;0;0;
79689;PMS5003;69156;55.932;-3.238;2023-05-10T13:08:29;0;0;
79689;PMS5003;69156;55.932;-3.238;2023-05-10T13:10:55;1;1;
79689;PMS5003;69156;55.932;-3.238;2023-05-10T13:13:20;0;0;
79689;PMS5003;69156;55.932;-3.238;2023-05-10T13:15:45;1;1;
79689;PMS5003;69156;55.932;-3.238;2023-05-10T13:18:11;1;1;
79689;PMS5003;69156;55.932;-3.238;2023-05-10T13:20:37;0;0;
79689;PMS5003;69156;55.932;-3.238;2023-05-10T13:23:02;0;0;
79689;PMS5003;69156;55.932;-3.238;2023-05-10T13:25:27;0;0;
79689;PMS5003;69156;55.932;-3.238;2023-05-10T13:27:53;0;0;
79689;PMS5003;69156;55.932;-3.238;2023-05-10T13:30:19;0;0;
79689;PMS5003;69156;55.932;-3.238;2023-05-10T13:32:46;0;0;
79689;PMS5003;69156;55.932;-3.238;2023-05-10T13:35:11;0;0;
79689;PMS5003;69156;55.932;-3.238;2023-05-10T13:37:36;1;1;
79689;PMS5003;69156;55.932;-3.238;2023-05-10T13:40:02;1;1;
79689;PMS5003;69156;55.932;-3.238;2023-05-10T13:42:26;0;0;
79689;PMS5003;69156;55.932;-3.238;2023-05-10T13:44:53;0;0;
79689;PMS5003;69156;55.932;-3.238;2023-05-10T13:47:19;1;0;
79689;PMS5003;69156;55.932;-3.238;2023-05-10T13:49:44;0;0;
79689;PMS5003;69156;55.932;-3.238;2023-05-10T13:52:10;0;0;
79689;PMS5003;69156;55.932;-3.238;2023-05-10T13:54:35;0;0;
79689;PMS5003;69156;55.932;-3.238;2023-05-10T13:57:01;0;0;
79689;PMS5003;69156;55.932;-3.238;2023-05-10T13:59:26;1;1;
79689;PMS5003;69156;55.932;-3.238;2023-05-10T14:01:52;0;0;
79689;PMS5003;69156;55.932;-3.238;2023-05-10T14:04:17;1;1;
79689;PMS5003;69156;55.932;-3.238;2023-05-10T14:06:42;0;0;
79689;PMS5003;69156;55.932;-3.238;2023-05-10T14:09:08;0;0;
79689;PMS5003;69156;55.932;-3.238;2023-05-10T14:11:33;0;0;
79689;PMS5003;69156;55.932;-3.238;2023-05-10T14:13:59;0;0;
79689;PMS5003;69156;55.932;-3.238;2023-05-10T14:16:25;1;0;
79689;PMS5003;69156;55.932;-3.238;2023-05-10T14:18:50;0;0;
79689;PMS5003;69156;55.932;-3.238;2023-05-10T14:21:16;0;0;
79689;PMS5003;69156;55.932;-3.238;2023-05-10T14:23:47;0;0;
79689;PMS5003;69156;55.932;-3.238;2023-05-10T14:26:08;1;1;
79689;PMS5003;69156;55.932;-3.238;2023-05-10T14:28:33;0;0;
79689;PMS5003;69156;55.932;-3.238;2023-05-10T14:31:00;0;0;
79689;PMS5003;69156;55.932;-3.238;2023-05-10T14:33:25;0;0;
79689;PMS5003;69156;55.932;-3.238;2023-05-10T14:35:50;0;0;
79689;PMS5003;69156;55.932;-3.238;2023-05-10T14:38:17;1;1;
79689;PMS5003;69156;55.932;-3.238;2023-05-10T14:40:43;0;0;
79689;PMS5003;69156;55.932;-3.238;2023-05-10T14:43:08;0;0;
79689;PMS5003;69156;55.932;-3.238;2023-05-10T14:45:33;1;1;
79689;PMS5003;69156;55.932;-3.238;2023-05-10T14:47:59;1;1;
79689;PMS5003;69156;55.932;-3.238;2023-05-10T14:50:24;1;0;
79689;PMS5003;69156;55.932;-3.238;2023-05-10T14:52:49;1;1;
79689;PMS5003;69156;55.932;-3.238;2023-05-10T14:55:16;1;1;
79689;PMS5003;69156;55.932;-3.238;2023-05-10T14:57:41;2;2;
79689;PMS5003;69156;55.932;-3.238;2023-05-10T15:00:07;1;1;
79689;PMS5003;69156;55.932;-3.238;2023-05-10T15:02:32;1;1;
79689;PMS5003;69156;55.932;-3.238;2023-05-10T15:04:57;1;1;
79689;PMS5003;69156;55.932;-3.238;2023-05-10T15:07:23;1;1;
79689;PMS5003;69156;55.932;-3.238;2023-05-10T15:09:49;0;0;
79689;PMS5003;69156;55.932;-3.238;2023-05-10T15:12:14;1;1;
79689;PMS5003;69156;55.932;-3.238;2023-05-10T15:14:39;2;2;
79689;PMS5003;69156;55.932;-3.238;2023-05-10T15:17:05;0;0;
79689;PMS5003;69156;55.932;-3.238;2023-05-10T15:19:30;1;1;
79689;PMS5003;69156;55.932;-3.238;2023-05-10T15:21:57;1;1;
79689;PMS5003;69156;55.932;-3.238;2023-05-10T15:24:22;1;1;
79689;PMS5003;69156;55.932;-3.238;2023-05-10T15:26:48;1;1;
79689;PMS5003;69156;55.932;-3.238;2023-05-10T15:29:13;1;1;
79689;PMS5003;69156;55.932;-3.238;2023-05-10T15:31:39;0;0;
79689;PMS5003;69156;55.932;-3.238;2023-05-10T15:34:04;1;1;
79689;PMS5003;69156;55.932;-3.238;2023-05-10T15:36:31;1;1;
79689;PMS5003;69156;55.932;-3.238;2023-05-10T15:38:54;0;0;
79689;PMS5003;69156;55.932;-3.238;2023-05-10T15:41:20;0;0;
79689;PMS5003;69156;55.932;-3.238;2023-05-10T15:43:45;0;0;
79689;PMS5003;69156;55.932;-3.238;2023-05-10T15:46:10;1;1;
79689;PMS5003;69156;55.932;-3.238;2023-05-10T15:48:36;1;1;
79689;PMS5003;69156;55.932;-3.238;2023-05-10T15:51:02;0;0;
79689;PMS5003;69156;55.932;-3.238;2023-05-10T15:53:27;1;1;
79689;PMS5003;69156;55.932;-3.238;2023-05-10T15:55:53;1;1;
79689;PMS5003;69156;55.932;-3.238;2023-05-10T15:58:19;1;0;
79689;PMS5003;69156;55.932;-3.238;2023-05-10T16:00:44;0;0;
79689;PMS5003;69156;55.932;-3.238;2023-05-10T16:03:09;1;1;
79689;PMS5003;69156;55.932;-3.238;2023-05-10T16:05:35;1;1;
79689;PMS5003;69156;55.932;-3.238;2023-05-10T16:11:44;1;1;
79689;PMS5003;69156;55.932;-3.238;2023-05-10T16:14:09;1;1;
79689;PMS5003;69156;55.932;-3.238;2023-05-10T16:16:35;2;2;
79689;PMS5003;69156;55.932;-3.238;2023-05-10T16:19:00;2;1;
79689;PMS5003;69156;55.932;-3.238;2023-05-10T16:21:26;1;1;
79689;PMS5003;69156;55.932;-3.238;2023-05-10T16:23:51;0;0;